sensor_id;sensor_type;location;lat;lon;timestamp;P1;durP1;ratioP1;P2;durP2;ratioP2
54683;SDS011;40582;53.100;6.686;2022-10-16T00:01:24;13.02;;;2.60;;
54683;SDS011;40582;53.100;6.686;2022-10-16T00:03:51;9.07;;;2.22;;
54683;SDS011;40582;53.100;6.686;2022-10-16T00:06:18;7.20;;;2.80;;
54683;SDS011;40582;53.100;6.686;2022-10-16T00:08:45;10.25;;;2.78;;
54683;SDS011;40582;53.100;6.686;2022-10-16T00:11:13;12.80;;;2.90;;
54683;SDS011;40582;53.100;6.686;2022-10-16T00:13:44;15.10;;;3.40;;
54683;SDS011;40582;53.100;6.686;2022-10-16T00:16:10;8.10;;;2.90;;
54683;SDS011;40582;53.100;6.686;2022-10-16T00:18:37;12.02;;;2.70;;
54683;SDS011;40582;53.100;6.686;2022-10-16T00:21:04;13.88;;;2.80;;
54683;SDS011;40582;53.100;6.686;2022-10-16T00:23:32;7.97;;;2.50;;
54683;SDS011;40582;53.100;6.686;2022-10-16T00:25:59;7.55;;;2.40;;
54683;SDS011;40582;53.100;6.686;2022-10-16T00:28:26;8.07;;;2.55;;
54683;SDS011;40582;53.100;6.686;2022-10-16T00:30:52;10.35;;;2.28;;
54683;SDS011;40582;53.100;6.686;2022-10-16T00:33:18;10.77;;;2.97;;
54683;SDS011;40582;53.100;6.686;2022-10-16T00:35:44;11.55;;;2.55;;
54683;SDS011;40582;53.100;6.686;2022-10-16T00:38:10;16.30;;;2.88;;
54683;SDS011;40582;53.100;6.686;2022-10-16T00:40:36;17.20;;;2.80;;
54683;SDS011;40582;53.100;6.686;2022-10-16T00:43:02;12.73;;;2.45;;
54683;SDS011;40582;53.100;6.686;2022-10-16T00:45:27;9.02;;;2.13;;
54683;SDS011;40582;53.100;6.686;2022-10-16T00:47:53;6.50;;;2.55;;
54683;SDS011;40582;53.100;6.686;2022-10-16T00:50:31;11.98;;;2.20;;
54683;SDS011;40582;53.100;6.686;2022-10-16T00:53:00;16.95;;;2.92;;
54683;SDS011;40582;53.100;6.686;2022-10-16T00:55:26;7.13;;;2.00;;
54683;SDS011;40582;53.100;6.686;2022-10-16T00:57:54;7.78;;;2.20;;
54683;SDS011;40582;53.100;6.686;2022-10-16T01:00:22;11.60;;;2.25;;
54683;SDS011;40582;53.100;6.686;2022-10-16T01:02:51;11.40;;;2.47;;
54683;SDS011;40582;53.100;6.686;2022-10-16T01:05:22;12.52;;;2.70;;
54683;SDS011;40582;53.100;6.686;2022-10-16T01:08:00;10.00;;;2.45;;
54683;SDS011;40582;53.100;6.686;2022-10-16T01:10:40;9.43;;;2.38;;
54683;SDS011;40582;53.100;6.686;2022-10-16T01:13:21;11.90;;;2.50;;
54683;SDS011;40582;53.100;6.686;2022-10-16T01:16:05;18.95;;;3.03;;
54683;SDS011;40582;53.100;6.686;2022-10-16T01:18:44;12.73;;;3.00;;
54683;SDS011;40582;53.100;6.686;2022-10-16T01:21:16;12.45;;;2.25;;
54683;SDS011;40582;53.100;6.686;2022-10-16T01:26:44;11.40;;;2.50;;
54683;SDS011;40582;53.100;6.686;2022-10-16T01:29:14;8.82;;;2.03;;
54683;SDS011;40582;53.100;6.686;2022-10-16T01:31:48;8.93;;;2.50;;
54683;SDS011;40582;53.100;6.686;2022-10-16T01:34:22;10.07;;;2.20;;
54683;SDS011;40582;53.100;6.686;2022-10-16T01:37:09;15.63;;;2.33;;
54683;SDS011;40582;53.100;6.686;2022-10-16T01:39:39;10.38;;;2.25;;
54683;SDS011;40582;53.100;6.686;2022-10-16T01:42:20;11.20;;;2.83;;
54683;SDS011;40582;53.100;6.686;2022-10-16T01:44:49;11.15;;;2.58;;
54683;SDS011;40582;53.100;6.686;2022-10-16T01:47:18;10.02;;;2.72;;
54683;SDS011;40582;53.100;6.686;2022-10-16T01:49:47;11.25;;;2.58;;
54683;SDS011;40582;53.100;6.686;2022-10-16T01:52:16;5.82;;;2.55;;
54683;SDS011;40582;53.100;6.686;2022-10-16T01:54:46;6.18;;;2.10;;
54683;SDS011;40582;53.100;6.686;2022-10-16T01:57:14;10.55;;;2.55;;
54683;SDS011;40582;53.100;6.686;2022-10-16T01:59:43;7.38;;;2.35;;
54683;SDS011;40582;53.100;6.686;2022-10-16T02:02:11;8.50;;;2.30;;
54683;SDS011;40582;53.100;6.686;2022-10-16T02:04:42;11.02;;;2.60;;
54683;SDS011;40582;53.100;6.686;2022-10-16T02:07:12;8.95;;;2.47;;
54683;SDS011;40582;53.100;6.686;2022-10-16T02:09:38;7.45;;;2.60;;
54683;SDS011;40582;53.100;6.686;2022-10-16T02:12:10;7.85;;;2.10;;
54683;SDS011;40582;53.100;6.686;2022-10-16T02:14:58;6.97;;;2.50;;
54683;SDS011;40582;53.100;6.686;2022-10-16T02:17:23;12.68;;;2.85;;
54683;SDS011;40582;53.100;6.686;2022-10-16T02:19:50;5.80;;;2.45;;
54683;SDS011;40582;53.100;6.686;2022-10-16T02:22:23;6.57;;;2.55;;
54683;SDS011;40582;53.100;6.686;2022-10-16T02:30:03;15.50;;;2.17;;
54683;SDS011;40582;53.100;6.686;2022-10-16T02:32:37;7.13;;;1.95;;
54683;SDS011;40582;53.100;6.686;2022-10-16T02:35:06;6.72;;;1.90;;
54683;SDS011;40582;53.100;6.686;2022-10-16T02:37:33;8.10;;;2.42;;
54683;SDS011;40582;53.100;6.686;2022-10-16T02:39:59;22.33;;;2.50;;
54683;SDS011;40582;53.100;6.686;2022-10-16T02:42:31;9.07;;;1.95;;
54683;SDS011;40582;53.100;6.686;2022-10-16T02:44:59;6.57;;;2.22;;
54683;SDS011;40582;53.100;6.686;2022-10-16T02:47:24;8.90;;;2.10;;
54683;SDS011;40582;53.100;6.686;2022-10-16T02:49:50;8.63;;;1.88;;
54683;SDS011;40582;53.100;6.686;2022-10-16T02:52:16;7.82;;;2.38;;
54683;SDS011;40582;53.100;6.686;2022-10-16T02:54:41;5.05;;;1.90;;
54683;SDS011;40582;53.100;6.686;2022-10-16T02:57:07;15.18;;;2.28;;
54683;SDS011;40582;53.100;6.686;2022-10-16T02:59:33;11.73;;;2.72;;
54683;SDS011;40582;53.100;6.686;2022-10-16T03:01:58;6.20;;;2.47;;
54683;SDS011;40582;53.100;6.686;2022-10-16T03:04:24;4.22;;;2.08;;
54683;SDS011;40582;53.100;6.686;2022-10-16T03:06:50;6.10;;;2.42;;
54683;SDS011;40582;53.100;6.686;2022-10-16T03:09:15;5.30;;;2.05;;
54683;SDS011;40582;53.100;6.686;2022-10-16T03:11:41;7.63;;;2.25;;
54683;SDS011;40582;53.100;6.686;2022-10-16T03:14:06;9.10;;;2.22;;
54683;SDS011;40582;53.100;6.686;2022-10-16T03:16:32;10.75;;;2.20;;
54683;SDS011;40582;53.100;6.686;2022-10-16T03:18:58;6.60;;;2.03;;
54683;SDS011;40582;53.100;6.686;2022-10-16T03:21:23;7.53;;;2.50;;
54683;SDS011;40582;53.100;6.686;2022-10-16T03:23:49;8.68;;;2.28;;
54683;SDS011;40582;53.100;6.686;2022-10-16T03:26:15;6.95;;;2.08;;
54683;SDS011;40582;53.100;6.686;2022-10-16T03:28:41;6.00;;;2.10;;
54683;SDS011;40582;53.100;6.686;2022-10-16T03:31:06;4.35;;;1.90;;
54683;SDS011;40582;53.100;6.686;2022-10-16T03:33:33;9.95;;;2.35;;
54683;SDS011;40582;53.100;6.686;2022-10-16T03:35:59;6.80;;;2.55;;
54683;SDS011;40582;53.100;6.686;2022-10-16T03:38:25;7.28;;;2.22;;
54683;SDS011;40582;53.100;6.686;2022-10-16T03:40:51;5.20;;;2.30;;
54683;SDS011;40582;53.100;6.686;2022-10-16T03:43:16;9.57;;;2.53;;
54683;SDS011;40582;53.100;6.686;2022-10-16T03:45:42;3.70;;;2.30;;
54683;SDS011;40582;53.100;6.686;2022-10-16T03:48:08;9.45;;;2.35;;
54683;SDS011;40582;53.100;6.686;2022-10-16T03:50:35;11.82;;;2.38;;
54683;SDS011;40582;53.100;6.686;2022-10-16T03:53:01;11.23;;;2.28;;
54683;SDS011;40582;53.100;6.686;2022-10-16T03:55:27;5.68;;;2.55;;
54683;SDS011;40582;53.100;6.686;2022-10-16T03:57:53;4.65;;;2.30;;
54683;SDS011;40582;53.100;6.686;2022-10-16T04:00:18;7.53;;;2.40;;
54683;SDS011;40582;53.100;6.686;2022-10-16T04:02:44;5.57;;;2.47;;
54683;SDS011;40582;53.100;6.686;2022-10-16T04:05:10;7.35;;;2.65;;
54683;SDS011;40582;53.100;6.686;2022-10-16T04:07:35;7.78;;;2.42;;
54683;SDS011;40582;53.100;6.686;2022-10-16T04:10:01;5.57;;;2.70;;
54683;SDS011;40582;53.100;6.686;2022-10-16T04:12:28;11.20;;;2.42;;
54683;SDS011;40582;53.100;6.686;2022-10-16T04:14:53;8.65;;;2.25;;
54683;SDS011;40582;53.100;6.686;2022-10-16T04:17:19;11.95;;;2.47;;
54683;SDS011;40582;53.100;6.686;2022-10-16T04:19:45;5.25;;;2.22;;
54683;SDS011;40582;53.100;6.686;2022-10-16T04:22:10;4.90;;;2.33;;
54683;SDS011;40582;53.100;6.686;2022-10-16T04:24:36;6.05;;;2.20;;
54683;SDS011;40582;53.100;6.686;2022-10-16T04:27:02;7.13;;;2.00;;
54683;SDS011;40582;53.100;6.686;2022-10-16T04:29:28;7.00;;;2.22;;
54683;SDS011;40582;53.100;6.686;2022-10-16T04:31:53;9.43;;;2.33;;
54683;SDS011;40582;53.100;6.686;2022-10-16T04:34:19;7.60;;;2.28;;
54683;SDS011;40582;53.100;6.686;2022-10-16T04:36:48;7.97;;;2.30;;
54683;SDS011;40582;53.100;6.686;2022-10-16T04:39:14;7.38;;;2.22;;
54683;SDS011;40582;53.100;6.686;2022-10-16T04:41:40;3.45;;;2.40;;
54683;SDS011;40582;53.100;6.686;2022-10-16T04:44:06;9.40;;;2.60;;
54683;SDS011;40582;53.100;6.686;2022-10-16T04:46:32;6.20;;;2.50;;
54683;SDS011;40582;53.100;6.686;2022-10-16T04:48:57;9.77;;;2.60;;
54683;SDS011;40582;53.100;6.686;2022-10-16T04:51:23;6.93;;;2.78;;
54683;SDS011;40582;53.100;6.686;2022-10-16T04:53:50;5.57;;;2.58;;
54683;SDS011;40582;53.100;6.686;2022-10-16T04:56:16;5.03;;;2.53;;
54683;SDS011;40582;53.100;6.686;2022-10-16T04:58:42;10.60;;;2.42;;
54683;SDS011;40582;53.100;6.686;2022-10-16T05:01:07;4.18;;;2.13;;
54683;SDS011;40582;53.100;6.686;2022-10-16T05:03:33;8.50;;;2.60;;
54683;SDS011;40582;53.100;6.686;2022-10-16T05:05:59;6.25;;;2.70;;
54683;SDS011;40582;53.100;6.686;2022-10-16T05:08:24;6.28;;;2.88;;
54683;SDS011;40582;53.100;6.686;2022-10-16T05:10:50;13.35;;;2.72;;
54683;SDS011;40582;53.100;6.686;2022-10-16T05:13:16;10.02;;;3.30;;
54683;SDS011;40582;53.100;6.686;2022-10-16T05:15:42;4.38;;;2.13;;
54683;SDS011;40582;53.100;6.686;2022-10-16T05:18:11;9.43;;;2.70;;
54683;SDS011;40582;53.100;6.686;2022-10-16T05:20:37;7.20;;;2.70;;
54683;SDS011;40582;53.100;6.686;2022-10-16T05:23:02;4.50;;;3.05;;
54683;SDS011;40582;53.100;6.686;2022-10-16T05:25:28;9.30;;;2.90;;
54683;SDS011;40582;53.100;6.686;2022-10-16T05:27:54;9.20;;;2.63;;
54683;SDS011;40582;53.100;6.686;2022-10-16T05:30:19;9.32;;;2.85;;
54683;SDS011;40582;53.100;6.686;2022-10-16T05:32:48;3.72;;;2.35;;
54683;SDS011;40582;53.100;6.686;2022-10-16T05:35:16;12.70;;;3.35;;
54683;SDS011;40582;53.100;6.686;2022-10-16T05:37:42;4.75;;;2.78;;
54683;SDS011;40582;53.100;6.686;2022-10-16T05:40:08;9.07;;;3.00;;
54683;SDS011;40582;53.100;6.686;2022-10-16T05:42:35;10.90;;;3.03;;
54683;SDS011;40582;53.100;6.686;2022-10-16T05:45:00;12.30;;;3.55;;
54683;SDS011;40582;53.100;6.686;2022-10-16T05:47:26;6.88;;;2.67;;
54683;SDS011;40582;53.100;6.686;2022-10-16T05:49:52;9.07;;;2.70;;
54683;SDS011;40582;53.100;6.686;2022-10-16T05:52:18;6.65;;;2.55;;
54683;SDS011;40582;53.100;6.686;2022-10-16T05:54:44;6.78;;;2.92;;
54683;SDS011;40582;53.100;6.686;2022-10-16T05:57:09;13.15;;;3.88;;
54683;SDS011;40582;53.100;6.686;2022-10-16T05:59:35;9.07;;;3.40;;
54683;SDS011;40582;53.100;6.686;2022-10-16T06:02:01;15.10;;;3.53;;
54683;SDS011;40582;53.100;6.686;2022-10-16T06:04:27;7.15;;;3.00;;
54683;SDS011;40582;53.100;6.686;2022-10-16T06:06:53;8.07;;;3.22;;
54683;SDS011;40582;53.100;6.686;2022-10-16T06:09:19;10.85;;;2.95;;
54683;SDS011;40582;53.100;6.686;2022-10-16T06:11:45;5.78;;;2.50;;
54683;SDS011;40582;53.100;6.686;2022-10-16T06:14:10;8.55;;;2.95;;
54683;SDS011;40582;53.100;6.686;2022-10-16T06:16:36;8.57;;;2.85;;
54683;SDS011;40582;53.100;6.686;2022-10-16T06:19:02;10.15;;;3.00;;
54683;SDS011;40582;53.100;6.686;2022-10-16T06:21:31;5.60;;;2.70;;
54683;SDS011;40582;53.100;6.686;2022-10-16T06:23:57;7.95;;;3.13;;
54683;SDS011;40582;53.100;6.686;2022-10-16T06:26:27;14.77;;;3.28;;
54683;SDS011;40582;53.100;6.686;2022-10-16T06:28:54;6.25;;;2.83;;
54683;SDS011;40582;53.100;6.686;2022-10-16T06:31:21;6.32;;;2.90;;
54683;SDS011;40582;53.100;6.686;2022-10-16T06:33:50;8.77;;;2.90;;
54683;SDS011;40582;53.100;6.686;2022-10-16T06:36:16;10.20;;;3.45;;
54683;SDS011;40582;53.100;6.686;2022-10-16T06:38:42;7.22;;;2.75;;
54683;SDS011;40582;53.100;6.686;2022-10-16T06:41:09;5.90;;;2.90;;
54683;SDS011;40582;53.100;6.686;2022-10-16T06:43:37;7.63;;;3.00;;
54683;SDS011;40582;53.100;6.686;2022-10-16T06:46:04;7.72;;;3.05;;
54683;SDS011;40582;53.100;6.686;2022-10-16T06:48:33;8.85;;;3.20;;
54683;SDS011;40582;53.100;6.686;2022-10-16T06:50:59;7.35;;;2.78;;
54683;SDS011;40582;53.100;6.686;2022-10-16T06:53:25;4.78;;;2.38;;
54683;SDS011;40582;53.100;6.686;2022-10-16T06:55:53;4.97;;;2.67;;
54683;SDS011;40582;53.100;6.686;2022-10-16T06:58:19;11.82;;;3.75;;
54683;SDS011;40582;53.100;6.686;2022-10-16T07:00:45;10.45;;;3.20;;
54683;SDS011;40582;53.100;6.686;2022-10-16T07:03:11;7.88;;;3.10;;
54683;SDS011;40582;53.100;6.686;2022-10-16T07:05:42;6.55;;;2.75;;
54683;SDS011;40582;53.100;6.686;2022-10-16T07:08:08;6.68;;;2.72;;
54683;SDS011;40582;53.100;6.686;2022-10-16T07:10:35;5.85;;;2.88;;
54683;SDS011;40582;53.100;6.686;2022-10-16T07:13:01;10.52;;;3.00;;
54683;SDS011;40582;53.100;6.686;2022-10-16T07:15:26;11.85;;;2.88;;
54683;SDS011;40582;53.100;6.686;2022-10-16T07:17:52;9.60;;;2.55;;
54683;SDS011;40582;53.100;6.686;2022-10-16T07:20:18;9.45;;;3.22;;
54683;SDS011;40582;53.100;6.686;2022-10-16T07:22:44;10.95;;;2.42;;
54683;SDS011;40582;53.100;6.686;2022-10-16T07:25:10;7.35;;;2.90;;
54683;SDS011;40582;53.100;6.686;2022-10-16T07:27:36;5.95;;;2.83;;
54683;SDS011;40582;53.100;6.686;2022-10-16T07:30:02;5.65;;;2.55;;
54683;SDS011;40582;53.100;6.686;2022-10-16T07:32:29;9.27;;;2.65;;
54683;SDS011;40582;53.100;6.686;2022-10-16T07:34:54;4.50;;;2.80;;
54683;SDS011;40582;53.100;6.686;2022-10-16T07:37:21;5.50;;;2.30;;
54683;SDS011;40582;53.100;6.686;2022-10-16T07:39:47;8.52;;;2.92;;
54683;SDS011;40582;53.100;6.686;2022-10-16T07:42:12;6.22;;;2.67;;
54683;SDS011;40582;53.100;6.686;2022-10-16T07:44:38;6.35;;;2.60;;
54683;SDS011;40582;53.100;6.686;2022-10-16T07:47:05;10.32;;;2.70;;
54683;SDS011;40582;53.100;6.686;2022-10-16T07:49:31;8.07;;;2.72;;
54683;SDS011;40582;53.100;6.686;2022-10-16T07:51:56;7.47;;;2.97;;
54683;SDS011;40582;53.100;6.686;2022-10-16T07:54:22;5.38;;;2.33;;
54683;SDS011;40582;53.100;6.686;2022-10-16T07:56:48;6.05;;;2.20;;
54683;SDS011;40582;53.100;6.686;2022-10-16T07:59:13;9.00;;;2.60;;
54683;SDS011;40582;53.100;6.686;2022-10-16T08:01:39;11.13;;;2.67;;
54683;SDS011;40582;53.100;6.686;2022-10-16T08:04:07;8.00;;;2.50;;
54683;SDS011;40582;53.100;6.686;2022-10-16T08:06:37;9.95;;;3.00;;
54683;SDS011;40582;53.100;6.686;2022-10-16T08:09:05;9.13;;;3.15;;
54683;SDS011;40582;53.100;6.686;2022-10-16T08:11:31;7.05;;;2.47;;
54683;SDS011;40582;53.100;6.686;2022-10-16T08:13:57;13.68;;;2.42;;
54683;SDS011;40582;53.100;6.686;2022-10-16T08:16:23;7.07;;;2.30;;
54683;SDS011;40582;53.100;6.686;2022-10-16T08:18:49;6.25;;;2.55;;
54683;SDS011;40582;53.100;6.686;2022-10-16T08:21:17;6.45;;;2.30;;
54683;SDS011;40582;53.100;6.686;2022-10-16T08:23:44;7.28;;;2.33;;
54683;SDS011;40582;53.100;6.686;2022-10-16T08:26:10;5.78;;;2.10;;
54683;SDS011;40582;53.100;6.686;2022-10-16T08:28:37;10.05;;;2.58;;
54683;SDS011;40582;53.100;6.686;2022-10-16T08:31:10;12.48;;;2.28;;
54683;SDS011;40582;53.100;6.686;2022-10-16T08:33:38;7.45;;;2.00;;
54683;SDS011;40582;53.100;6.686;2022-10-16T08:36:05;8.90;;;2.25;;
54683;SDS011;40582;53.100;6.686;2022-10-16T08:38:32;7.72;;;2.20;;
54683;SDS011;40582;53.100;6.686;2022-10-16T08:41:08;6.28;;;2.15;;
54683;SDS011;40582;53.100;6.686;2022-10-16T08:46:26;6.93;;;2.13;;
54683;SDS011;40582;53.100;6.686;2022-10-16T08:49:31;20.77;;;2.63;;
54683;SDS011;40582;53.100;6.686;2022-10-16T08:51:57;8.05;;;2.22;;
54683;SDS011;40582;53.100;6.686;2022-10-16T08:57:01;9.60;;;2.13;;
54683;SDS011;40582;53.100;6.686;2022-10-16T08:59:53;8.98;;;1.98;;
54683;SDS011;40582;53.100;6.686;2022-10-16T09:04:58;7.28;;;2.25;;
54683;SDS011;40582;53.100;6.686;2022-10-16T09:10:15;8.82;;;2.30;;
54683;SDS011;40582;53.100;6.686;2022-10-16T09:19:00;8.05;;;2.42;;
54683;SDS011;40582;53.100;6.686;2022-10-16T09:21:35;5.28;;;1.80;;
54683;SDS011;40582;53.100;6.686;2022-10-16T09:24:11;13.10;;;2.20;;
54683;SDS011;40582;53.100;6.686;2022-10-16T09:26:46;23.17;;;3.00;;
54683;SDS011;40582;53.100;6.686;2022-10-16T09:29:12;13.38;;;2.28;;
54683;SDS011;40582;53.100;6.686;2022-10-16T09:31:42;9.93;;;2.28;;
54683;SDS011;40582;53.100;6.686;2022-10-16T09:34:17;10.05;;;2.75;;
54683;SDS011;40582;53.100;6.686;2022-10-16T09:36:52;20.35;;;2.80;;
54683;SDS011;40582;53.100;6.686;2022-10-16T09:39:18;11.57;;;2.30;;
54683;SDS011;40582;53.100;6.686;2022-10-16T09:41:44;33.47;;;4.60;;
54683;SDS011;40582;53.100;6.686;2022-10-16T09:44:16;11.82;;;2.83;;
54683;SDS011;40582;53.100;6.686;2022-10-16T09:46:46;16.67;;;2.78;;
54683;SDS011;40582;53.100;6.686;2022-10-16T09:49:19;39.05;;;4.43;;
54683;SDS011;40582;53.100;6.686;2022-10-16T09:51:49;11.23;;;2.58;;
54683;SDS011;40582;53.100;6.686;2022-10-16T09:54:17;12.05;;;2.97;;
54683;SDS011;40582;53.100;6.686;2022-10-16T09:56:44;14.57;;;2.65;;
54683;SDS011;40582;53.100;6.686;2022-10-16T09:59:18;29.17;;;3.90;;
54683;SDS011;40582;53.100;6.686;2022-10-16T10:01:46;18.58;;;3.50;;
54683;SDS011;40582;53.100;6.686;2022-10-16T10:04:16;12.45;;;2.58;;
54683;SDS011;40582;53.100;6.686;2022-10-16T10:06:46;15.98;;;3.10;;
54683;SDS011;40582;53.100;6.686;2022-10-16T10:11:42;13.27;;;3.00;;
54683;SDS011;40582;53.100;6.686;2022-10-16T10:14:55;15.75;;;2.85;;
54683;SDS011;40582;53.100;6.686;2022-10-16T10:17:17;14.32;;;3.05;;
54683;SDS011;40582;53.100;6.686;2022-10-16T10:27:39;17.60;;;3.25;;
54683;SDS011;40582;53.100;6.686;2022-10-16T10:33:12;17.75;;;3.08;;
54683;SDS011;40582;53.100;6.686;2022-10-16T10:44:01;17.08;;;3.03;;
54683;SDS011;40582;53.100;6.686;2022-10-16T10:46:42;11.40;;;2.85;;
54683;SDS011;40582;53.100;6.686;2022-10-16T10:54:50;16.77;;;3.60;;
54683;SDS011;40582;53.100;6.686;2022-10-16T11:03:25;19.42;;;3.85;;
54683;SDS011;40582;53.100;6.686;2022-10-16T11:06:39;21.58;;;3.35;;
54683;SDS011;40582;53.100;6.686;2022-10-16T11:08:58;20.08;;;3.67;;
54683;SDS011;40582;53.100;6.686;2022-10-16T11:11:41;17.70;;;3.90;;
54683;SDS011;40582;53.100;6.686;2022-10-16T11:14:11;13.88;;;2.92;;
54683;SDS011;40582;53.100;6.686;2022-10-16T11:16:40;22.83;;;3.45;;
54683;SDS011;40582;53.100;6.686;2022-10-16T11:27:31;19.67;;;3.42;;
54683;SDS011;40582;53.100;6.686;2022-10-16T11:30:16;16.33;;;3.10;;
54683;SDS011;40582;53.100;6.686;2022-10-16T11:35:25;17.35;;;3.08;;
54683;SDS011;40582;53.100;6.686;2022-10-16T11:38:29;12.13;;;3.60;;
54683;SDS011;40582;53.100;6.686;2022-10-16T11:41:35;14.27;;;3.05;;
54683;SDS011;40582;53.100;6.686;2022-10-16T11:47:23;19.40;;;3.38;;
54683;SDS011;40582;53.100;6.686;2022-10-16T11:50:01;16.75;;;3.50;;
54683;SDS011;40582;53.100;6.686;2022-10-16T11:52:42;15.75;;;3.00;;
54683;SDS011;40582;53.100;6.686;2022-10-16T11:55:17;13.02;;;3.25;;
54683;SDS011;40582;53.100;6.686;2022-10-16T11:57:47;15.55;;;2.95;;
54683;SDS011;40582;53.100;6.686;2022-10-16T12:00:28;15.63;;;3.20;;
54683;SDS011;40582;53.100;6.686;2022-10-16T12:08:49;19.48;;;3.00;;
54683;SDS011;40582;53.100;6.686;2022-10-16T12:11:24;16.58;;;2.88;;
54683;SDS011;40582;53.100;6.686;2022-10-16T12:14:16;17.80;;;3.08;;
54683;SDS011;40582;53.100;6.686;2022-10-16T12:16:55;14.45;;;3.67;;
54683;SDS011;40582;53.100;6.686;2022-10-16T12:19:24;15.70;;;2.92;;
54683;SDS011;40582;53.100;6.686;2022-10-16T12:21:52;13.80;;;2.97;;
54683;SDS011;40582;53.100;6.686;2022-10-16T12:24:39;15.43;;;3.72;;
54683;SDS011;40582;53.100;6.686;2022-10-16T12:27:27;15.80;;;2.65;;
54683;SDS011;40582;53.100;6.686;2022-10-16T12:30:01;16.52;;;3.17;;
54683;SDS011;40582;53.100;6.686;2022-10-16T12:32:37;23.10;;;3.47;;
54683;SDS011;40582;53.100;6.686;2022-10-16T12:35:04;11.95;;;2.92;;
54683;SDS011;40582;53.100;6.686;2022-10-16T12:37:42;13.75;;;2.70;;
54683;SDS011;40582;53.100;6.686;2022-10-16T12:40:12;16.20;;;3.25;;
54683;SDS011;40582;53.100;6.686;2022-10-16T12:42:50;21.83;;;3.28;;
54683;SDS011;40582;53.100;6.686;2022-10-16T12:45:27;18.33;;;3.40;;
54683;SDS011;40582;53.100;6.686;2022-10-16T12:47:53;15.02;;;3.13;;
54683;SDS011;40582;53.100;6.686;2022-10-16T12:50:25;12.90;;;2.78;;
54683;SDS011;40582;53.100;6.686;2022-10-16T12:52:57;17.80;;;3.17;;
54683;SDS011;40582;53.100;6.686;2022-10-16T12:55:23;17.13;;;3.08;;
54683;SDS011;40582;53.100;6.686;2022-10-16T12:58:08;17.77;;;3.28;;
54683;SDS011;40582;53.100;6.686;2022-10-16T13:00:45;21.23;;;3.58;;
54683;SDS011;40582;53.100;6.686;2022-10-16T13:09:06;13.23;;;2.97;;
54683;SDS011;40582;53.100;6.686;2022-10-16T13:11:59;15.27;;;2.97;;
54683;SDS011;40582;53.100;6.686;2022-10-16T13:25:47;22.40;;;3.38;;
54683;SDS011;40582;53.100;6.686;2022-10-16T13:28:34;19.90;;;3.33;;
54683;SDS011;40582;53.100;6.686;2022-10-16T13:31:02;16.05;;;2.90;;
54683;SDS011;40582;53.100;6.686;2022-10-16T13:33:36;18.15;;;3.05;;
54683;SDS011;40582;53.100;6.686;2022-10-16T13:36:04;24.60;;;3.35;;
54683;SDS011;40582;53.100;6.686;2022-10-16T13:38:34;19.65;;;2.85;;
54683;SDS011;40582;53.100;6.686;2022-10-16T13:41:02;19.70;;;3.22;;
54683;SDS011;40582;53.100;6.686;2022-10-16T13:43:39;17.77;;;2.83;;
54683;SDS011;40582;53.100;6.686;2022-10-16T13:46:16;16.77;;;3.00;;
54683;SDS011;40582;53.100;6.686;2022-10-16T13:48:59;20.30;;;3.70;;
54683;SDS011;40582;53.100;6.686;2022-10-16T13:51:26;18.00;;;3.10;;
54683;SDS011;40582;53.100;6.686;2022-10-16T13:53:54;15.52;;;3.03;;
54683;SDS011;40582;53.100;6.686;2022-10-16T13:56:21;22.77;;;2.83;;
54683;SDS011;40582;53.100;6.686;2022-10-16T13:58:59;15.93;;;3.13;;
54683;SDS011;40582;53.100;6.686;2022-10-16T14:01:29;18.23;;;3.13;;
54683;SDS011;40582;53.100;6.686;2022-10-16T14:04:00;12.82;;;3.25;;
54683;SDS011;40582;53.100;6.686;2022-10-16T14:11:44;12.40;;;2.85;;
54683;SDS011;40582;53.100;6.686;2022-10-16T14:14:17;14.38;;;3.25;;
54683;SDS011;40582;53.100;6.686;2022-10-16T14:16:44;16.95;;;2.53;;
54683;SDS011;40582;53.100;6.686;2022-10-16T14:19:22;15.88;;;2.65;;
54683;SDS011;40582;53.100;6.686;2022-10-16T14:21:52;13.82;;;2.95;;
54683;SDS011;40582;53.100;6.686;2022-10-16T14:24:24;15.65;;;2.97;;
54683;SDS011;40582;53.100;6.686;2022-10-16T14:26:50;16.48;;;2.45;;
54683;SDS011;40582;53.100;6.686;2022-10-16T14:29:19;17.52;;;2.75;;
54683;SDS011;40582;53.100;6.686;2022-10-16T14:31:55;18.13;;;3.42;;
54683;SDS011;40582;53.100;6.686;2022-10-16T14:34:34;14.10;;;2.95;;
54683;SDS011;40582;53.100;6.686;2022-10-16T14:39:49;14.73;;;2.53;;
54683;SDS011;40582;53.100;6.686;2022-10-16T14:42:16;14.05;;;3.30;;
54683;SDS011;40582;53.100;6.686;2022-10-16T14:44:45;16.95;;;3.03;;
54683;SDS011;40582;53.100;6.686;2022-10-16T14:47:16;19.60;;;3.13;;
54683;SDS011;40582;53.100;6.686;2022-10-16T14:49:49;22.05;;;4.07;;
54683;SDS011;40582;53.100;6.686;2022-10-16T14:52:15;13.93;;;3.20;;
54683;SDS011;40582;53.100;6.686;2022-10-16T14:54:41;15.50;;;3.05;;
54683;SDS011;40582;53.100;6.686;2022-10-16T14:57:17;22.40;;;3.25;;
54683;SDS011;40582;53.100;6.686;2022-10-16T14:59:44;18.20;;;3.40;;
54683;SDS011;40582;53.100;6.686;2022-10-16T15:02:26;13.43;;;3.10;;
54683;SDS011;40582;53.100;6.686;2022-10-16T15:04:52;18.27;;;2.97;;
54683;SDS011;40582;53.100;6.686;2022-10-16T15:07:18;18.08;;;3.03;;
54683;SDS011;40582;53.100;6.686;2022-10-16T15:09:44;16.90;;;3.22;;
54683;SDS011;40582;53.100;6.686;2022-10-16T15:12:09;19.60;;;4.07;;
54683;SDS011;40582;53.100;6.686;2022-10-16T15:14:35;18.75;;;3.17;;
54683;SDS011;40582;53.100;6.686;2022-10-16T15:17:01;13.82;;;3.03;;
54683;SDS011;40582;53.100;6.686;2022-10-16T15:19:27;22.77;;;3.28;;
54683;SDS011;40582;53.100;6.686;2022-10-16T15:21:53;13.02;;;2.83;;
54683;SDS011;40582;53.100;6.686;2022-10-16T15:24:18;13.52;;;2.92;;
54683;SDS011;40582;53.100;6.686;2022-10-16T15:26:44;18.80;;;3.35;;
54683;SDS011;40582;53.100;6.686;2022-10-16T15:29:13;15.82;;;2.95;;
54683;SDS011;40582;53.100;6.686;2022-10-16T15:31:39;17.95;;;3.03;;
54683;SDS011;40582;53.100;6.686;2022-10-16T15:34:08;18.23;;;3.22;;
54683;SDS011;40582;53.100;6.686;2022-10-16T15:36:35;19.52;;;2.88;;
54683;SDS011;40582;53.100;6.686;2022-10-16T15:39:05;14.13;;;2.75;;
54683;SDS011;40582;53.100;6.686;2022-10-16T15:41:39;17.65;;;3.65;;
54683;SDS011;40582;53.100;6.686;2022-10-16T15:44:06;14.85;;;2.88;;
54683;SDS011;40582;53.100;6.686;2022-10-16T15:46:32;16.05;;;3.33;;
54683;SDS011;40582;53.100;6.686;2022-10-16T15:48:59;13.25;;;2.97;;
54683;SDS011;40582;53.100;6.686;2022-10-16T15:51:26;18.58;;;3.50;;
54683;SDS011;40582;53.100;6.686;2022-10-16T15:53:55;24.40;;;4.15;;
54683;SDS011;40582;53.100;6.686;2022-10-16T15:56:22;21.38;;;3.92;;
54683;SDS011;40582;53.100;6.686;2022-10-16T15:58:50;18.85;;;3.97;;
54683;SDS011;40582;53.100;6.686;2022-10-16T16:01:19;15.25;;;3.08;;
54683;SDS011;40582;53.100;6.686;2022-10-16T16:03:45;18.52;;;3.97;;
54683;SDS011;40582;53.100;6.686;2022-10-16T16:06:11;24.48;;;3.70;;
54683;SDS011;40582;53.100;6.686;2022-10-16T16:08:38;23.98;;;4.03;;
54683;SDS011;40582;53.100;6.686;2022-10-16T16:11:05;15.77;;;3.75;;
54683;SDS011;40582;53.100;6.686;2022-10-16T16:13:32;15.50;;;3.47;;
54683;SDS011;40582;53.100;6.686;2022-10-16T16:15:58;16.70;;;4.28;;
54683;SDS011;40582;53.100;6.686;2022-10-16T16:18:24;20.77;;;3.72;;
54683;SDS011;40582;53.100;6.686;2022-10-16T16:20:51;24.05;;;4.28;;
54683;SDS011;40582;53.100;6.686;2022-10-16T16:23:17;15.57;;;3.53;;
54683;SDS011;40582;53.100;6.686;2022-10-16T16:25:44;22.58;;;4.93;;
54683;SDS011;40582;53.100;6.686;2022-10-16T16:28:10;24.73;;;4.90;;
54683;SDS011;40582;53.100;6.686;2022-10-16T16:30:39;22.45;;;4.97;;
54683;SDS011;40582;53.100;6.686;2022-10-16T16:33:06;14.95;;;3.78;;
54683;SDS011;40582;53.100;6.686;2022-10-16T16:35:31;20.40;;;3.90;;
54683;SDS011;40582;53.100;6.686;2022-10-16T16:37:57;18.25;;;3.78;;